»·PEaware :: SWA401 KDAL-KABQ

SWA401 :: KDAL-KABQ

FLIGHT INFORMATION

Flight Status: Arrived
Operator:
Southwest Airlines
More flights by this operator :: More flights under this callsign
Pilot: Lorenzo C. (29758)
Aircraft: BOEING 737-700
(B737)
More flights by this aircraft type
Origin: KDAL Dallas Love
United States
Destination: KABQ Albuquerque Intl Sunport
United States
More flights between these airports :: More routes between these airports
Route: KKITY5 HULZE TXO RECKN COLTR3
File this flight plan on PilotEdge
Remarks: RMK / SIMBRIEF KABQ0127 KSAF -PBN / A1B1C1D1S1S2 NAV / RNVD1E2A1 REG / N252WN EET / KZAB0051)
Altitude:
(Current/Filed)
38,000ft
Speed:
(Current/Filed)
457kts
Departed: 27-May-20 01:56 PM
Arrived: 27-May-20 02:34 PM
Distance/Time
Traveled:
503nm/0:38
Distance/Time
To Go:
Arrived

Flight Plot

Page will automatically refresh every two minutes.

Flight plan parsing failed; only flown route is shown


Map Options




Map Legend


Flown Route
Filed Route
Departure Airport
Arrival Airport
Navaid (VOR, NDB)
Fix

Horizontal Profiles

Position Reports

Time Latitude Longitude Heading Altitude Ground
Speed
27-May-20 13:55 34.492203 -102.829725 287 38076ft 415kts
27-May-20 13:55 34.508179 -102.944971 282 38073ft 418kts
27-May-20 13:56 34.525100 -103.083960 283 38080ft 417kts
27-May-20 13:57 34.541986 -103.223296 282 38089ft 417kts
27-May-20 13:58 34.558660 -103.362270 282 38089ft 416kts
27-May-20 13:59 34.575099 -103.500630 282 38088ft 415kts
27-May-20 14:00 34.596836 -103.637196 290 38088ft 410kts
27-May-20 14:01 34.629833 -103.770053 290 38091ft 410kts
27-May-20 14:02 34.662444 -103.902420 290 38090ft 410kts
27-May-20 14:03 34.694929 -104.034939 290 38089ft 410kts
27-May-20 14:04 34.727400 -104.168107 290 38088ft 410kts
27-May-20 14:05 34.759566 -104.300699 290 38089ft 410kts
27-May-20 14:06 34.791700 -104.433855 290 38090ft 411kts
27-May-20 14:07 34.823770 -104.567473 290 38091ft 410kts
27-May-20 14:10 34.868807 -104.977409 280 36676ft 421kts
27-May-20 14:11 34.881488 -105.117996 280 34012ft 416kts
27-May-20 14:12 34.894121 -105.259346 279 30989ft 433kts
27-May-20 14:13 34.906890 -105.404977 279 28022ft 426kts
27-May-20 14:14 34.918402 -105.541787 279 26147ft 393kts
27-May-20 14:15 34.929016 -105.672267 278 23752ft 380kts
27-May-20 14:16 34.939297 -105.798465 278 21464ft 367kts
27-May-20 14:17 34.949062 -105.920073 278 19230ft 356kts
27-May-20 14:18 34.956825 -106.037842 273 16960ft 349kts
27-May-20 14:19 34.957783 -106.154815 272 14807ft 340kts
27-May-20 14:20 34.958851 -106.264005 272 13573ft 312kts
27-May-20 14:21 34.959859 -106.369494 272 11858ft 307kts
27-May-20 14:22 34.956990 -106.471241 269 10681ft 285kts
27-May-20 14:23 34.953955 -106.562770 269 10082ft 253kts
27-May-20 14:24 34.949130 -106.648436 265 9263ft 255kts
27-May-20 14:25 34.941546 -106.732382 265 8485ft 243kts
27-May-20 14:26 34.934398 -106.814455 265 8150ft 247kts
27-May-20 14:27 34.944266 -106.887865 331 8121ft 226kts
27-May-20 14:28 35.000212 -106.871254 46 8106ft 231kts
27-May-20 14:29 35.032582 -106.804408 68 8078ft 232kts
27-May-20 14:30 35.043593 -106.729865 89 7383ft 206kts
27-May-20 14:31 35.043992 -106.667601 84 5995ft 164kts
27-May-20 14:32 35.044281 -106.611479 90 5321ft 159kts
27-May-20 14:33 35.044729 -106.592336 67 5329ft 4kts
27-May-20 14:34 35.045844 -106.592463 273 5329ft 13kts
27-May-20 14:35 35.045858 -106.596400 270 5326ft 14kts
27-May-20 14:36 35.045739 -106.600843 268 5322ft 2kts
27-May-20 14:37 35.045759 -106.603169 270 5323ft 14kts
27-May-20 14:38 35.045807 -106.610499 269 5319ft 23kts
27-May-20 14:39 35.045562 -106.614971 269 5316ft 8kts
27-May-20 14:40 35.045963 -106.616345 357 5313ft 3kts
27-May-20 14:41 35.046914 -106.616387 11 5312ft 0kts
27-May-20 14:42 35.046914 -106.616387 11 5312ft 0kts
27-May-20 14:43 35.046914 -106.616387 11 5312ft 0kts
27-May-20 14:44 35.046914 -106.616387 11 5312ft 0kts
27-May-20 14:45 35.046914 -106.616387 11 5312ft 0kts
27-May-20 14:46 35.046914 -106.616387 11 5312ft 0kts
27-May-20 14:47 35.046914 -106.616387 11 5312ft 0kts

Navigation Log

Ident Type
Flight plan parsing failed, navigation log unavailable